PDT,Max TemperatureF,Mean TemperatureF,Min TemperatureF,Max Dew PointF,MeanDew PointF,Min DewpointF,Max Humidity, Mean Humidity, Min Humidity, Max Sea Level PressureIn, Mean Sea Level PressureIn, Min Sea Level PressureIn, Max VisibilityMiles, Mean VisibilityMiles, Min VisibilityMiles, Max Wind SpeedMPH, Mean Wind SpeedMPH, Max Gust SpeedMPH,PrecipitationIn, CloudCover, Events, WindDirDegrees
2013-9-1,97,86,74,64,59,52,62,42,22,29.89,29.84,29.78,10,10,10,14,5,15,0.00,0,,329
2013-9-2,95,84,73,63,60,57,68,50,32,29.91,29.84,29.77,10,10,10,16,6,20,0.00,0,,304
2013-9-3,91,83,74,61,58,57,54,43,32,29.95,29.88,29.83,10,10,10,14,6,20,T,0,,311
2013-9-4,92,81,69,59,55,51,61,45,28,29.97,29.91,29.85,10,10,10,12,4,24,0.00,0,,299
2013-9-5,92,81,69,59,55,52,57,43,28,29.97,29.90,29.84,10,10,10,13,5,15,0.00,0,,304
2013-9-6,92,80,67,57,53,48,66,47,28,29.95,29.88,29.80,10,10,10,12,5,16,0.00,0,,274
2013-9-7,105,88,70,56,47,31,57,34,10,29.86,29.80,29.73,10,10,9,14,4,17,0.00,0,,338
2013-9-8,100,86,72,51,44,30,38,27,15,29.84,29.77,29.68,10,10,10,13,5,17,0.00,0,,37
2013-9-9,98,86,74,52,48,42,43,30,16,29.77,29.71,29.64,10,10,9,12,4,15,0.00,0,,323
2013-9-10,99,86,72,50,46,41,41,29,16,29.82,29.73,29.68,10,10,9,14,5,17,0.00,0,,2
2013-9-11,90,78,66,55,49,44,45,36,26,29.94,29.89,29.83,10,10,10,13,6,17,0.00,0,,326
2013-9-12,90,78,65,57,53,48,67,47,27,29.96,29.88,29.81,10,10,9,10,4,14,0.00,0,,313
2013-9-13,94,82,69,55,52,49,57,40,22,29.84,29.76,29.68,10,10,7,12,3,15,0.00,0,,308
2013-9-14,96,84,71,57,54,51,53,40,26,29.74,29.69,29.63,10,10,10,12,4,15,0.00,0,,339
2013-9-15,93,81,69,60,53,48,68,45,22,29.78,29.74,29.69,10,10,10,13,5,17,0.00,0,,299
2013-9-16,89,78,66,56,53,49,63,46,29,29.86,29.79,29.72,10,10,10,12,4,14,0.00,0,,285
2013-9-17,88,77,65,56,50,45,68,46,24,29.81,29.77,29.72,10,10,10,15,6,22,0.00,0,,325
2013-9-18,83,72,61,49,46,42,56,40,24,29.89,29.83,29.77,10,10,10,14,4,20,0.00,0,,324
2013-9-19,90,76,62,49,46,42,56,40,24,29.85,29.79,29.71,10,10,10,12,4,16,0.00,0,,195
2013-9-20,95,79,63,49,45,37,48,33,17,29.83,29.74,29.69,10,10,6,17,6,22,0.00,0,,322
2013-9-21,84,73,62,56,50,43,63,47,30,29.87,29.82,29.74,10,9,4,24,6,29,0.00,2,,333
2013-9-22,74,64,54,51,47,42,83,59,35,29.97,29.92,29.86,10,10,10,15,5,23,0.00,2,,310
2013-9-23,82,69,56,51,47,42,62,46,30,30.01,29.96,29.89,10,10,9,10,3,14,0.00,0,,136
2013-9-24,88,74,60,49,46,42,60,41,22,29.96,29.88,29.79,10,10,10,17,3,21,0.00,0,,305
2013-9-25,75,67,59,49,43,39,62,46,29,29.91,29.82,29.73,10,10,10,20,9,23,0.00,2,,326
2013-9-26,74,64,53,43,38,33,59,41,23,29.95,29.86,29.77,10,10,10,18,8,33,0.00,1,,336
2013-9-27,78,66,54,38,35,33,54,37,19,30.07,30.02,29.96,10,10,10,12,5,15,0.00,0,,79
2013-9-28,84,70,55,39,36,33,51,34,17,30.08,30.04,29.96,10,10,10,12,5,15,0.00,0,,238
2013-9-29,87,72,56,40,34,28,44,28,12,30.10,30.03,29.98,10,10,10,9,4,13,0.00,0,,44
2013-9-30,82,70,57,54,47,30,63,45,26,30.08,29.99,29.90,10,10,10,9,4,14,0.00,0,,345